createdAt,value
2019-04-06T00:00:14.069Z,24.00
2019-04-06T00:02:47.557Z,29.10
2019-04-06T00:05:19.971Z,23.90
2019-04-06T00:07:52.048Z,21.48
2019-04-06T00:10:24.293Z,23.67
2019-04-06T00:12:56.201Z,23.38
2019-04-06T00:15:28.273Z,24.65
2019-04-06T00:18:00.084Z,25.65
2019-04-06T00:20:32.293Z,24.05
2019-04-06T00:23:04.319Z,24.77
2019-04-06T00:25:44.312Z,23.90
2019-04-06T00:28:10.299Z,29.05
2019-04-06T00:30:54.037Z,22.73
2019-04-06T00:33:26.311Z,30.00
2019-04-06T00:35:58.490Z,23.10
2019-04-06T00:38:30.664Z,24.25
2019-04-06T00:41:02.891Z,25.37
2019-04-06T00:43:34.715Z,25.27
2019-04-06T00:46:06.850Z,24.10
2019-04-06T00:48:39.089Z,30.27
2019-04-06T00:51:11.116Z,20.68
2019-04-06T00:53:43.203Z,28.23
2019-04-06T00:56:15.313Z,21.00
2019-04-06T00:58:47.835Z,22.98
2019-04-06T01:01:19.997Z,26.35
2019-04-06T01:03:52.117Z,20.48
2019-04-06T01:06:24.327Z,22.45
2019-04-06T01:08:56.338Z,26.82
2019-04-06T01:11:28.340Z,36.93
2019-04-06T01:14:00.548Z,22.73
2019-04-06T01:16:32.656Z,25.15
2019-04-06T01:19:05.891Z,28.77
2019-04-06T01:21:38.130Z,24.72
2019-04-06T01:24:10.590Z,23.55
2019-04-06T01:26:42.809Z,22.82
2019-04-06T01:29:15.106Z,24.12
2019-04-06T01:31:47.378Z,24.65
2019-04-06T01:34:19.405Z,20.60
2019-04-06T01:36:51.491Z,23.20
2019-04-06T01:39:23.537Z,23.25
2019-04-06T01:41:55.554Z,23.20
2019-04-06T01:44:27.673Z,21.52
2019-04-06T01:46:59.746Z,23.27
2019-04-06T01:49:31.770Z,25.23
2019-04-06T01:52:03.920Z,26.02
2019-04-06T01:54:35.954Z,23.27
2019-04-06T01:57:09.986Z,25.90
2019-04-06T01:59:42.322Z,21.77
2019-04-06T02:02:21.791Z,22.25
2019-04-06T02:04:53.896Z,20.97
2019-04-06T02:07:26.152Z,19.32
2019-04-06T02:09:58.173Z,27.90
2019-04-06T02:12:30.303Z,28.85
2019-04-06T02:15:02.551Z,24.45
2019-04-06T02:17:34.738Z,25.62
2019-04-06T02:20:07.338Z,21.57
2019-04-06T02:22:39.426Z,22.48
2019-04-06T02:25:12.135Z,25.95
2019-04-06T02:27:44.037Z,28.83
2019-04-06T02:33:51.371Z,21.50
2019-04-06T02:36:50.185Z,24.77
2019-04-06T02:39:48.776Z,23.50
2019-04-06T02:42:38.250Z,25.72
2019-04-06T02:45:29.324Z,22.95
2019-04-06T02:48:12.706Z,26.52
2019-04-06T02:51:03.994Z,22.58
2019-04-06T02:53:48.008Z,26.33
2019-04-06T02:56:45.019Z,28.70
2019-04-06T02:59:18.698Z,25.72
2019-04-06T03:02:09.799Z,23.50
2019-04-06T03:04:54.531Z,25.45
2019-04-06T03:07:26.607Z,27.62
2019-04-06T03:10:10.173Z,28.73
2019-04-06T03:12:54.589Z,25.77
2019-04-06T03:15:38.744Z,26.57
2019-04-06T03:18:29.874Z,25.75
2019-04-06T03:21:13.391Z,24.10
2019-04-06T03:24:04.514Z,27.30
2019-04-06T03:26:59.861Z,24.75
2019-04-06T03:29:56.177Z,26.42
2019-04-06T03:32:32.344Z,25.52
2019-04-06T03:35:24.006Z,28.17
2019-04-06T03:38:28.422Z,26.55
2019-04-06T03:41:19.692Z,22.95
2019-04-06T03:44:03.285Z,25.30
2019-04-06T03:46:48.306Z,27.82
2019-04-06T03:49:33.339Z,25.27
2019-04-06T03:52:24.489Z,23.62
2019-04-06T03:55:09.930Z,28.00
2019-04-06T03:57:53.668Z,25.23
2019-04-06T04:00:44.918Z,28.00
2019-04-06T04:03:29.072Z,26.68
2019-04-06T04:06:20.552Z,22.70
2019-04-06T04:09:11.469Z,29.85
2019-04-06T04:12:02.651Z,27.48
2019-04-06T04:14:46.546Z,27.20
2019-04-06T04:17:37.633Z,27.22
2019-04-06T04:20:21.618Z,25.27
2019-04-06T04:23:13.111Z,29.52
2019-04-06T04:25:56.945Z,29.50
2019-04-06T04:28:48.311Z,25.97
2019-04-06T04:31:20.321Z,29.42
2019-04-06T04:34:13.091Z,26.05
2019-04-06T04:36:45.028Z,27.80
2019-04-06T04:39:28.627Z,25.05
2019-04-06T04:42:19.701Z,27.25
2019-04-06T04:45:04.664Z,32.67
2019-04-06T04:47:55.994Z,25.80
2019-04-06T04:50:39.410Z,27.22
2019-04-06T04:53:30.491Z,33.25
2019-04-06T04:56:14.259Z,28.30
2019-04-06T04:59:05.482Z,28.50
2019-04-06T05:01:37.588Z,28.73
2019-04-06T05:04:09.821Z,30.37
2019-04-06T05:06:53.865Z,28.57
2019-04-06T05:09:37.462Z,25.68
2019-04-06T05:12:28.607Z,28.92
2019-04-06T05:15:12.925Z,25.02
2019-04-06T05:17:56.416Z,35.95
2019-04-06T05:20:47.483Z,28.95
2019-04-06T05:23:31.330Z,37.88
2019-04-06T05:26:22.472Z,43.80
2019-04-06T05:29:05.986Z,40.52
2019-04-06T05:31:51.019Z,36.45
2019-04-06T05:34:35.390Z,54.20
2019-04-06T05:37:26.539Z,78.57
2019-04-06T05:40:13.273Z,47.40
2019-04-06T05:42:45.205Z,51.65
2019-04-06T05:45:29.895Z,70.55
2019-04-06T05:48:21.294Z,49.73
2019-04-06T05:51:05.318Z,56.13
2019-04-06T05:53:56.566Z,46.30
2019-04-06T05:56:40.617Z,43.08
2019-04-06T05:59:24.456Z,38.17
2019-04-06T06:02:15.581Z,30.65
2019-04-06T06:05:00.878Z,36.90
2019-04-06T06:07:51.769Z,36.33
2019-04-06T06:10:38.307Z,36.88
2019-04-06T06:13:28.968Z,32.63
2019-04-06T06:16:12.922Z,41.45
2019-04-06T06:19:04.128Z,36.60
2019-04-06T06:21:48.559Z,42.65
2019-04-06T06:24:39.711Z,32.80
2019-04-06T06:27:23.550Z,30.90
2019-04-06T06:30:15.426Z,34.92
2019-04-06T06:32:57.754Z,39.40
2019-04-06T06:35:49.769Z,34.30
2019-04-06T06:38:33.696Z,31.77
2019-04-06T06:41:25.262Z,31.25
2019-04-06T06:44:09.162Z,31.90
2019-04-06T06:46:53.302Z,38.00
2019-04-06T06:49:44.458Z,39.30
2019-04-06T06:52:28.359Z,40.00
2019-04-06T06:55:11.960Z,35.65
2019-04-06T06:57:44.162Z,37.40
2019-04-06T07:00:29.262Z,33.08
2019-04-06T07:03:12.825Z,32.13
2019-04-06T07:06:04.552Z,35.70
2019-04-06T07:08:54.869Z,34.05
2019-04-06T07:11:46.088Z,37.63
2019-04-06T07:14:30.616Z,36.60
2019-04-06T07:17:21.807Z,42.17
2019-04-06T07:20:07.091Z,36.93
2019-04-06T07:22:58.242Z,36.00
2019-04-06T07:25:42.244Z,43.25
2019-04-06T07:28:37.105Z,37.05
2019-04-06T07:31:11.925Z,34.23
2019-04-06T07:34:03.132Z,40.88
2019-04-06T07:36:47.199Z,42.90
2019-04-06T07:39:38.439Z,40.23
2019-04-06T07:42:21.877Z,36.48
2019-04-06T07:45:04.365Z,37.65
2019-04-06T07:47:48.085Z,35.70
2019-04-06T07:50:32.273Z,43.78
2019-04-06T07:53:23.515Z,45.80
2019-04-06T07:56:07.106Z,57.55
2019-04-06T07:58:58.522Z,43.63
2019-04-06T08:01:43.611Z,41.65
2019-04-06T08:04:34.786Z,41.18
2019-04-06T08:07:18.768Z,42.58
2019-04-06T08:10:10.148Z,43.58
2019-04-06T08:12:54.281Z,39.80
2019-04-06T08:15:38.073Z,45.25
2019-04-06T08:18:10.291Z,48.98
2019-04-06T08:20:42.465Z,47.67
2019-04-06T08:23:33.705Z,44.77
2019-04-06T08:26:18.225Z,48.75
2019-04-06T08:29:02.841Z,45.75
2019-04-06T08:31:54.533Z,50.12
2019-04-06T08:34:38.133Z,42.85
2019-04-06T08:37:29.517Z,44.63
2019-04-06T08:40:11.289Z,46.42
2019-04-06T08:42:54.750Z,47.62
2019-04-06T08:45:46.038Z,45.90
2019-04-06T08:48:30.006Z,46.58
2019-04-06T08:51:21.262Z,53.83
2019-04-06T08:54:05.612Z,51.20
2019-04-06T08:56:56.850Z,52.80
2019-04-06T08:59:40.862Z,50.40
2019-04-06T09:02:32.070Z,45.63
2019-04-06T09:05:16.112Z,50.28
2019-04-06T09:08:07.234Z,48.15
2019-04-06T09:10:39.464Z,43.20
2019-04-06T09:13:30.674Z,53.28
2019-04-06T09:16:14.634Z,44.98
2019-04-06T09:18:49.128Z,46.85
2019-04-06T09:21:52.616Z,52.65
2019-04-06T09:24:24.592Z,51.70
2019-04-06T09:27:08.840Z,46.83
2019-04-06T09:30:00.336Z,47.67
2019-04-06T09:32:50.697Z,45.70
2019-04-06T09:35:41.714Z,45.73
2019-04-06T09:38:27.110Z,48.83
2019-04-06T09:41:18.210Z,50.75
2019-04-06T09:44:02.054Z,50.20
2019-04-06T09:47:12.197Z,50.25
2019-04-06T09:50:14.996Z,45.45
2019-04-06T09:53:25.372Z,51.53
2019-04-06T09:56:28.503Z,45.15
2019-04-06T09:59:38.717Z,54.50
2019-04-06T10:02:32.338Z,44.95
2019-04-06T10:05:42.490Z,45.03
2019-04-06T10:08:45.258Z,52.83
2019-04-06T10:11:55.343Z,49.18
2019-04-06T10:15:01.507Z,48.70
2019-04-06T10:18:13.165Z,50.05
2019-04-06T10:21:12.366Z,51.25
2019-04-06T10:24:22.396Z,50.85
2019-04-06T10:27:25.453Z,49.95
2019-04-06T10:30:35.692Z,49.83
2019-04-06T10:33:38.516Z,47.55
2019-04-06T10:36:36.837Z,49.40
2019-04-06T10:39:42.665Z,44.30
2019-04-06T10:42:54.300Z,39.73
2019-04-06T10:45:58.560Z,46.23
2019-04-06T10:49:04.495Z,44.67
2019-04-06T10:52:14.481Z,45.45
2019-04-06T10:55:17.387Z,44.25
2019-04-06T10:58:27.353Z,50.98
2019-04-06T11:01:34.087Z,41.50
2019-04-06T11:04:57.139Z,44.75
2019-04-06T11:08:00.616Z,49.93
2019-04-06T11:11:08.828Z,42.90
2019-04-06T11:14:11.868Z,36.75
2019-04-06T11:17:21.912Z,39.60
2019-04-06T11:20:23.090Z,38.28
2019-04-06T11:23:33.137Z,39.58
2019-04-06T11:26:36.577Z,36.58
2019-04-06T11:29:35.273Z,25.82
2019-04-06T11:35:50.724Z,24.35
2019-04-06T11:38:48.340Z,19.82
2019-04-06T11:41:55.478Z,24.50
2019-04-06T11:45:05.710Z,23.65
2019-04-06T11:47:56.940Z,20.82
2019-04-06T11:50:59.882Z,23.65
2019-04-06T11:53:51.000Z,23.00
2019-04-06T11:56:47.863Z,22.52
2019-04-06T11:59:51.964Z,23.30
2019-04-06T12:02:50.118Z,23.02
2019-04-06T12:06:00.259Z,24.35
2019-04-06T12:09:05.537Z,24.77
2019-04-06T12:12:09.789Z,21.37
2019-04-06T12:15:19.767Z,22.52
2019-04-06T12:18:17.560Z,25.40
2019-04-06T12:21:17.553Z,26.33
2019-04-06T12:24:27.936Z,22.00
2019-04-06T12:27:30.699Z,23.18
2019-04-06T12:30:41.330Z,28.07
2019-04-06T12:33:44.243Z,20.62
2019-04-06T12:36:46.795Z,20.72
2019-04-06T12:39:52.994Z,23.77
2019-04-06T12:43:01.965Z,23.52
2019-04-06T12:46:05.786Z,22.93
2019-04-06T12:48:56.823Z,20.97
2019-04-06T12:52:07.024Z,21.48
2019-04-06T12:54:59.380Z,21.35
2019-04-06T12:58:09.422Z,21.70
2019-04-06T13:01:00.280Z,25.10
2019-04-06T13:04:10.423Z,22.93
2019-04-06T13:10:24.260Z,21.05
2019-04-06T13:13:17.460Z,22.65
2019-04-06T13:16:27.532Z,22.95
2019-04-06T13:19:22.203Z,16.50
2019-04-06T13:22:32.652Z,16.85
2019-04-06T13:25:23.136Z,17.73
2019-04-06T13:28:33.289Z,17.00
2019-04-06T13:31:37.608Z,15.48
2019-04-06T13:34:28.514Z,16.67
2019-04-06T13:37:19.445Z,16.95
2019-04-06T13:40:19.643Z,17.80
2019-04-06T13:43:10.658Z,16.97
2019-04-06T13:46:12.404Z,14.63
2019-04-06T13:49:08.900Z,14.83
2019-04-06T13:52:00.262Z,16.05
2019-04-06T13:55:10.348Z,15.75
2019-04-06T13:58:03.764Z,17.02
2019-04-06T14:01:14.450Z,16.43
2019-04-06T14:04:16.510Z,15.48
2019-04-06T14:07:26.809Z,15.45
2019-04-06T14:10:32.599Z,18.10
2019-04-06T14:13:42.792Z,16.10
2019-04-06T14:16:48.873Z,15.38
2019-04-06T14:19:58.869Z,16.90
2019-04-06T14:23:02.029Z,15.00
2019-04-06T14:26:11.967Z,15.65
2019-04-06T14:29:03.773Z,15.90
2019-04-06T14:32:13.840Z,14.80
2019-04-06T14:35:19.259Z,17.45
2019-04-06T14:38:25.402Z,17.75
2019-04-06T14:41:28.250Z,15.40
2019-04-06T14:44:35.318Z,18.12
2019-04-06T14:47:42.632Z,18.23
2019-04-06T14:50:37.516Z,16.05
2019-04-06T14:53:34.855Z,14.05
2019-04-06T14:56:39.423Z,15.20
2019-04-06T14:59:55.670Z,17.52
2019-04-06T15:03:02.684Z,17.35
2019-04-06T15:06:12.799Z,17.50
2019-04-06T15:09:15.306Z,13.98
2019-04-06T15:12:32.131Z,15.93
2019-04-06T15:15:35.170Z,16.75
2019-04-06T15:18:35.816Z,13.72
2019-04-06T15:21:45.925Z,14.43
2019-04-06T15:24:54.821Z,15.68
2019-04-06T15:28:05.302Z,16.55
2019-04-06T15:31:02.179Z,14.83
2019-04-06T15:34:12.137Z,13.08
2019-04-06T15:37:14.927Z,14.18
2019-04-06T15:40:25.304Z,21.95
2019-04-06T15:43:28.297Z,14.43
2019-04-06T15:46:24.972Z,14.68
2019-04-06T15:49:33.158Z,12.43
2019-04-06T15:52:43.181Z,14.45
2019-04-06T15:55:47.534Z,14.07
2019-04-06T15:58:57.515Z,18.02
2019-04-06T16:02:06.182Z,16.52
2019-04-06T16:05:03.054Z,12.70
2019-04-06T16:07:57.217Z,13.38
2019-04-06T16:11:07.181Z,14.43
2019-04-06T16:14:06.161Z,12.73
2019-04-06T16:17:19.019Z,12.15
2019-04-06T16:20:09.583Z,13.18
2019-04-06T16:23:10.860Z,13.77
2019-04-06T16:26:00.904Z,12.88
2019-04-06T16:29:17.826Z,12.53
2019-04-06T16:32:32.798Z,14.43
2019-04-06T16:35:36.184Z,12.30
2019-04-06T16:38:46.460Z,14.27
2019-04-06T16:41:49.193Z,16.43
2019-04-06T16:44:49.918Z,16.55
2019-04-06T16:47:47.255Z,14.37
2019-04-06T16:50:50.145Z,15.50
2019-04-06T16:53:40.932Z,14.68
2019-04-06T16:56:41.174Z,15.53
2019-04-06T16:59:46.343Z,23.10
2019-04-06T17:02:56.549Z,27.45
2019-04-06T17:06:02.572Z,19.92
2019-04-06T17:09:01.185Z,22.60
2019-04-06T17:12:13.536Z,19.20
2019-04-06T17:18:26.412Z,14.55
2019-04-06T17:21:29.543Z,14.75
2019-04-06T17:24:39.708Z,17.65
2019-04-06T17:27:42.477Z,14.63
2019-04-06T17:34:21.733Z,15.43
2019-04-06T17:37:24.650Z,16.65
2019-04-06T17:40:27.078Z,15.50
2019-04-06T17:43:37.027Z,15.88
2019-04-06T17:46:39.606Z,15.00
2019-04-06T17:49:49.665Z,14.50
2019-04-06T17:52:42.805Z,15.50
2019-04-06T17:55:52.888Z,16.48
2019-04-06T17:58:59.416Z,13.40
2019-04-06T18:02:09.497Z,16.63
2019-04-06T18:05:11.944Z,17.10
2019-04-06T18:08:15.436Z,17.52
2019-04-06T18:11:25.824Z,18.23
2019-04-06T18:14:09.633Z,21.30
2019-04-06T18:17:00.870Z,20.08
2019-04-06T18:19:44.902Z,20.88
2019-04-06T18:25:39.202Z,14.90
2019-04-06T18:28:30.709Z,17.10
2019-04-06T18:31:35.624Z,19.73
2019-04-06T18:34:20.318Z,21.15
2019-04-06T18:37:25.018Z,18.67
2019-04-06T18:43:12.053Z,20.15
2019-04-06T18:45:55.854Z,19.17
2019-04-06T18:48:39.486Z,20.40
2019-04-06T18:51:30.598Z,25.53
2019-04-06T18:54:03.044Z,21.33
2019-04-06T18:56:35.670Z,21.35
2019-04-06T18:59:26.029Z,24.70
2019-04-06T19:02:17.442Z,21.20
2019-04-06T19:05:01.680Z,27.37
2019-04-06T19:07:52.970Z,27.65
2019-04-06T19:10:24.815Z,26.50
2019-04-06T19:13:08.931Z,25.85
2019-04-06T19:15:52.563Z,28.07
2019-04-06T19:18:43.688Z,26.25
2019-04-06T19:21:27.445Z,29.05
2019-04-06T19:24:21.610Z,30.02
2019-04-06T19:27:05.641Z,27.52
2019-04-06T19:29:56.932Z,27.90
2019-04-06T19:32:41.384Z,23.90
2019-04-06T19:35:25.651Z,24.60
2019-04-06T19:38:16.868Z,24.60
2019-04-06T19:40:49.299Z,22.80
2019-04-06T19:43:47.094Z,25.40
2019-04-06T19:46:31.153Z,25.30
2019-04-06T19:49:22.282Z,27.95
2019-04-06T19:52:05.613Z,32.70
2019-04-06T19:54:50.209Z,27.87
2019-04-06T19:57:41.788Z,26.05
2019-04-06T20:00:25.822Z,23.75
2019-04-06T20:03:17.020Z,24.37
2019-04-06T20:06:01.747Z,29.15
2019-04-06T20:08:53.040Z,24.85
2019-04-06T20:11:37.542Z,22.98
2019-04-06T20:14:28.703Z,22.02
2019-04-06T20:17:14.474Z,23.18
2019-04-06T20:20:06.526Z,27.55
2019-04-06T20:23:11.093Z,25.35
2019-04-06T20:26:02.566Z,27.70
2019-04-06T20:28:46.121Z,30.48
2019-04-06T20:31:37.232Z,25.88
2019-04-06T20:34:21.238Z,25.70
2019-04-06T20:37:12.553Z,28.98
2019-04-06T20:39:56.863Z,24.60
2019-04-06T20:42:48.284Z,23.75
2019-04-06T20:45:20.425Z,30.88
2019-04-06T20:48:11.622Z,27.50
2019-04-06T20:50:55.459Z,27.65
2019-04-06T20:53:39.660Z,32.28
2019-04-06T20:56:31.523Z,26.02
2019-04-06T20:59:35.935Z,26.45
2019-04-06T21:02:27.174Z,28.75
2019-04-06T21:04:59.855Z,23.65
2019-04-06T21:07:57.855Z,27.00
2019-04-06T21:10:43.033Z,24.18
2019-04-06T21:13:34.150Z,28.67
2019-04-06T21:16:18.778Z,27.77
2019-04-06T21:19:07.112Z,26.80
2019-04-06T21:21:58.808Z,31.10
2019-04-06T21:24:42.905Z,26.77
2019-04-06T21:27:34.181Z,27.22
2019-04-06T21:30:18.637Z,30.20
2019-04-06T21:33:09.902Z,25.55
2019-04-06T21:35:53.927Z,28.47
2019-04-06T21:38:45.569Z,37.00
2019-04-06T21:41:49.905Z,31.95
2019-04-06T21:44:41.129Z,35.63
2019-04-06T21:47:24.891Z,31.00
2019-04-06T21:50:16.141Z,33.83
2019-04-06T21:52:59.959Z,37.55
2019-04-06T21:56:01.015Z,29.18
2019-04-06T21:58:41.806Z,35.77
2019-04-06T22:01:33.091Z,36.55
2019-04-06T22:04:23.593Z,31.35
2019-04-06T22:07:09.843Z,31.75
2019-04-06T22:09:53.543Z,33.67
2019-04-06T22:12:44.797Z,32.00
2019-04-06T22:15:29.441Z,32.33
2019-04-06T22:18:20.723Z,33.65
2019-04-06T22:20:52.953Z,31.97
2019-04-06T22:23:46.103Z,32.20
2019-04-06T22:26:50.726Z,38.73
2019-04-06T22:29:41.782Z,33.10
2019-04-06T22:32:25.926Z,30.10
2019-04-06T22:35:17.128Z,36.07
2019-04-06T22:38:01.127Z,30.45
2019-04-06T22:40:52.985Z,29.48
2019-04-06T22:43:37.304Z,27.32
2019-04-06T22:46:28.389Z,34.03
2019-04-06T22:49:12.319Z,27.85
2019-04-06T22:52:03.508Z,32.23
2019-04-06T22:54:47.774Z,30.92
2019-04-06T22:57:38.917Z,33.80
2019-04-06T23:00:41.750Z,31.80
2019-04-06T23:03:51.838Z,28.20
2019-04-06T23:09:58.945Z,27.30
2019-04-06T23:12:43.903Z,36.38
2019-04-06T23:15:27.941Z,28.42
2019-04-06T23:18:19.723Z,30.37
2019-04-06T23:21:23.700Z,35.73
2019-04-06T23:24:16.012Z,29.75
2019-04-06T23:27:19.648Z,30.95
2019-04-06T23:30:10.863Z,28.05
2019-04-06T23:32:54.876Z,29.50
2019-04-06T23:35:46.304Z,30.85
2019-04-06T23:38:30.413Z,27.05
2019-04-06T23:41:21.879Z,33.95
2019-04-06T23:44:26.098Z,31.02
2019-04-06T23:47:18.247Z,29.82
2019-04-06T23:50:02.804Z,31.00
2019-04-06T23:52:47.873Z,35.70
2019-04-06T23:55:39.007Z,31.52
2019-04-06T23:58:22.998Z,36.28
